sensor_id;sensor_type;location;lat;lon;timestamp;P1;durP1;ratioP1;P2;durP2;ratioP2
10088;SDS011;51898;49.864;8.550;2023-06-26T00:00:29;9.80;;;8.80;;
10088;SDS011;51898;49.864;8.550;2023-06-26T00:03:32;10.57;;;8.87;;
10088;SDS011;51898;49.864;8.550;2023-06-26T00:06:34;8.83;;;7.90;;
10088;SDS011;51898;49.864;8.550;2023-06-26T00:09:37;10.17;;;8.83;;
10088;SDS011;51898;49.864;8.550;2023-06-26T00:12:39;8.77;;;7.97;;
10088;SDS011;51898;49.864;8.550;2023-06-26T00:15:41;9.80;;;7.93;;
10088;SDS011;51898;49.864;8.550;2023-06-26T00:18:49;8.80;;;7.93;;
10088;SDS011;51898;49.864;8.550;2023-06-26T00:21:52;9.03;;;8.13;;
10088;SDS011;51898;49.864;8.550;2023-06-26T00:24:54;9.50;;;7.53;;
10088;SDS011;51898;49.864;8.550;2023-06-26T00:27:57;11.73;;;8.73;;
10088;SDS011;51898;49.864;8.550;2023-06-26T00:30:59;12.30;;;8.10;;
10088;SDS011;51898;49.864;8.550;2023-06-26T00:34:05;9.33;;;8.50;;
10088;SDS011;51898;49.864;8.550;2023-06-26T00:37:08;9.60;;;8.50;;
10088;SDS011;51898;49.864;8.550;2023-06-26T00:40:10;8.77;;;7.87;;
10088;SDS011;51898;49.864;8.550;2023-06-26T00:43:14;9.00;;;8.10;;
10088;SDS011;51898;49.864;8.550;2023-06-26T00:46:16;9.70;;;8.70;;
10088;SDS011;51898;49.864;8.550;2023-06-26T00:49:21;10.67;;;9.10;;
10088;SDS011;51898;49.864;8.550;2023-06-26T00:52:29;10.17;;;8.57;;
10088;SDS011;51898;49.864;8.550;2023-06-26T00:55:33;11.53;;;8.40;;
10088;SDS011;51898;49.864;8.550;2023-06-26T00:58:35;9.00;;;8.10;;
10088;SDS011;51898;49.864;8.550;2023-06-26T01:01:38;8.90;;;8.00;;
10088;SDS011;51898;49.864;8.550;2023-06-26T01:04:40;10.40;;;9.30;;
10088;SDS011;51898;49.864;8.550;2023-06-26T01:07:48;9.80;;;8.93;;
10088;SDS011;51898;49.864;8.550;2023-06-26T01:10:53;10.93;;;8.57;;
10088;SDS011;51898;49.864;8.550;2023-06-26T01:13:56;10.10;;;8.27;;
10088;SDS011;51898;49.864;8.550;2023-06-26T01:17:00;12.77;;;8.70;;
10088;SDS011;51898;49.864;8.550;2023-06-26T01:20:04;10.20;;;9.20;;
10088;SDS011;51898;49.864;8.550;2023-06-26T01:26:31;11.07;;;9.77;;
10088;SDS011;51898;49.864;8.550;2023-06-26T01:29:36;9.63;;;8.53;;
10088;SDS011;51898;49.864;8.550;2023-06-26T01:32:40;11.40;;;8.90;;
10088;SDS011;51898;49.864;8.550;2023-06-26T01:35:43;9.83;;;8.87;;
10088;SDS011;51898;49.864;8.550;2023-06-26T01:38:46;9.83;;;8.87;;
10088;SDS011;51898;49.864;8.550;2023-06-26T01:41:48;9.60;;;8.60;;
10088;SDS011;51898;49.864;8.550;2023-06-26T01:44:51;10.13;;;9.00;;
10088;SDS011;51898;49.864;8.550;2023-06-26T01:47:56;10.30;;;9.07;;
10088;SDS011;51898;49.864;8.550;2023-06-26T01:51:02;11.77;;;9.03;;
10088;SDS011;51898;49.864;8.550;2023-06-26T01:54:06;9.90;;;8.90;;
10088;SDS011;51898;49.864;8.550;2023-06-26T01:57:15;11.93;;;9.17;;
10088;SDS011;51898;49.864;8.550;2023-06-26T02:00:20;9.77;;;8.47;;
10088;SDS011;51898;49.864;8.550;2023-06-26T02:03:23;14.67;;;8.73;;
10088;SDS011;51898;49.864;8.550;2023-06-26T02:06:26;11.57;;;9.37;;
10088;SDS011;51898;49.864;8.550;2023-06-26T02:09:28;10.83;;;9.13;;
10088;SDS011;51898;49.864;8.550;2023-06-26T02:12:30;12.03;;;9.53;;
10088;SDS011;51898;49.864;8.550;2023-06-26T02:15:33;10.23;;;9.13;;
10088;SDS011;51898;49.864;8.550;2023-06-26T02:18:35;12.43;;;10.43;;
10088;SDS011;51898;49.864;8.550;2023-06-26T02:21:37;11.20;;;10.07;;
10088;SDS011;51898;49.864;8.550;2023-06-26T02:24:43;9.77;;;8.77;;
10088;SDS011;51898;49.864;8.550;2023-06-26T02:27:45;9.97;;;8.90;;
10088;SDS011;51898;49.864;8.550;2023-06-26T02:30:48;14.53;;;9.60;;
10088;SDS011;51898;49.864;8.550;2023-06-26T02:33:50;11.03;;;9.93;;
10088;SDS011;51898;49.864;8.550;2023-06-26T02:36:52;11.20;;;10.03;;
10088;SDS011;51898;49.864;8.550;2023-06-26T02:39:57;12.90;;;9.40;;
10088;SDS011;51898;49.864;8.550;2023-06-26T02:43:00;12.30;;;9.80;;
10088;SDS011;51898;49.864;8.550;2023-06-26T02:46:02;12.10;;;9.93;;
10088;SDS011;51898;49.864;8.550;2023-06-26T02:49:04;17.67;;;9.50;;
10088;SDS011;51898;49.864;8.550;2023-06-26T02:52:06;11.03;;;9.87;;
10088;SDS011;51898;49.864;8.550;2023-06-26T02:55:08;12.20;;;8.13;;
10088;SDS011;51898;49.864;8.550;2023-06-26T02:58:10;10.50;;;8.97;;
10088;SDS011;51898;49.864;8.550;2023-06-26T03:01:13;12.90;;;9.40;;
10088;SDS011;51898;49.864;8.550;2023-06-26T03:04:18;11.20;;;9.80;;
10088;SDS011;51898;49.864;8.550;2023-06-26T03:07:23;9.33;;;8.43;;
10088;SDS011;51898;49.864;8.550;2023-06-26T03:10:26;11.00;;;9.10;;
10088;SDS011;51898;49.864;8.550;2023-06-26T03:13:28;11.57;;;8.97;;
10088;SDS011;51898;49.864;8.550;2023-06-26T03:16:31;12.27;;;10.00;;
10088;SDS011;51898;49.864;8.550;2023-06-26T03:19:33;11.27;;;10.03;;
10088;SDS011;51898;49.864;8.550;2023-06-26T03:22:35;10.13;;;9.00;;
10088;SDS011;51898;49.864;8.550;2023-06-26T03:25:37;16.73;;;9.37;;
10088;SDS011;51898;49.864;8.550;2023-06-26T03:28:39;10.43;;;9.43;;
10088;SDS011;51898;49.864;8.550;2023-06-26T03:31:43;11.13;;;10.00;;
10088;SDS011;51898;49.864;8.550;2023-06-26T03:34:45;14.03;;;10.20;;
10088;SDS011;51898;49.864;8.550;2023-06-26T03:37:48;12.17;;;10.27;;
10088;SDS011;51898;49.864;8.550;2023-06-26T03:40:50;15.20;;;11.17;;
10088;SDS011;51898;49.864;8.550;2023-06-26T03:43:53;13.63;;;10.77;;
10088;SDS011;51898;49.864;8.550;2023-06-26T03:46:58;12.03;;;10.70;;
10088;SDS011;51898;49.864;8.550;2023-06-26T03:50:00;11.77;;;10.47;;
10088;SDS011;51898;49.864;8.550;2023-06-26T03:53:02;12.23;;;10.40;;
10088;SDS011;51898;49.864;8.550;2023-06-26T03:56:04;12.50;;;10.70;;
10088;SDS011;51898;49.864;8.550;2023-06-26T03:59:06;11.90;;;10.70;;
10088;SDS011;51898;49.864;8.550;2023-06-26T04:02:09;12.53;;;10.60;;
10088;SDS011;51898;49.864;8.550;2023-06-26T04:05:11;11.47;;;10.37;;
10088;SDS011;51898;49.864;8.550;2023-06-26T04:08:13;12.30;;;10.10;;
10088;SDS011;51898;49.864;8.550;2023-06-26T04:11:15;13.70;;;10.33;;
10088;SDS011;51898;49.864;8.550;2023-06-26T04:14:17;12.93;;;11.63;;
10088;SDS011;51898;49.864;8.550;2023-06-26T04:17:19;15.57;;;10.77;;
10088;SDS011;51898;49.864;8.550;2023-06-26T04:20:23;11.80;;;10.70;;
10088;SDS011;51898;49.864;8.550;2023-06-26T04:23:25;19.10;;;11.23;;
10088;SDS011;51898;49.864;8.550;2023-06-26T04:26:27;12.87;;;11.63;;
10088;SDS011;51898;49.864;8.550;2023-06-26T04:29:30;15.67;;;10.67;;
10088;SDS011;51898;49.864;8.550;2023-06-26T04:32:32;16.13;;;10.70;;
10088;SDS011;51898;49.864;8.550;2023-06-26T04:35:34;11.27;;;10.27;;
10088;SDS011;51898;49.864;8.550;2023-06-26T04:38:38;11.90;;;10.80;;
10088;SDS011;51898;49.864;8.550;2023-06-26T04:41:40;13.30;;;11.20;;
10088;SDS011;51898;49.864;8.550;2023-06-26T04:44:43;13.73;;;10.30;;
10088;SDS011;51898;49.864;8.550;2023-06-26T04:47:45;12.47;;;11.10;;
10088;SDS011;51898;49.864;8.550;2023-06-26T04:50:47;11.97;;;10.87;;
10088;SDS011;51898;49.864;8.550;2023-06-26T04:53:55;12.00;;;10.80;;
10088;SDS011;51898;49.864;8.550;2023-06-26T04:56:57;12.10;;;10.90;;
10088;SDS011;51898;49.864;8.550;2023-06-26T05:00:03;11.57;;;10.40;;
10088;SDS011;51898;49.864;8.550;2023-06-26T05:03:11;12.45;;;11.23;;
10088;SDS011;51898;49.864;8.550;2023-06-26T05:06:14;12.57;;;11.20;;
10088;SDS011;51898;49.864;8.550;2023-06-26T05:09:17;12.30;;;11.20;;
10088;SDS011;51898;49.864;8.550;2023-06-26T05:12:23;13.13;;;11.90;;
10088;SDS011;51898;49.864;8.550;2023-06-26T05:15:27;13.87;;;12.60;;
10088;SDS011;51898;49.864;8.550;2023-06-26T05:18:35;12.10;;;11.10;;
10088;SDS011;51898;49.864;8.550;2023-06-26T05:21:38;13.50;;;12.10;;
10088;SDS011;51898;49.864;8.550;2023-06-26T05:24:40;12.53;;;11.27;;
10088;SDS011;51898;49.864;8.550;2023-06-26T05:27:43;12.13;;;10.80;;
10088;SDS011;51898;49.864;8.550;2023-06-26T05:30:45;12.47;;;11.27;;
10088;SDS011;51898;49.864;8.550;2023-06-26T05:33:48;13.37;;;11.17;;
10088;SDS011;51898;49.864;8.550;2023-06-26T05:36:52;12.10;;;10.90;;
10088;SDS011;51898;49.864;8.550;2023-06-26T05:39:59;14.83;;;11.63;;
10088;SDS011;51898;49.864;8.550;2023-06-26T05:43:02;12.73;;;11.40;;
10088;SDS011;51898;49.864;8.550;2023-06-26T05:46:05;12.67;;;10.90;;
10088;SDS011;51898;49.864;8.550;2023-06-26T05:49:09;15.10;;;11.80;;
10088;SDS011;51898;49.864;8.550;2023-06-26T05:52:15;15.33;;;11.83;;
10088;SDS011;51898;49.864;8.550;2023-06-26T05:55:17;14.23;;;11.90;;
10088;SDS011;51898;49.864;8.550;2023-06-26T05:58:20;12.33;;;11.03;;
10088;SDS011;51898;49.864;8.550;2023-06-26T06:01:26;11.27;;;10.27;;
10088;SDS011;51898;49.864;8.550;2023-06-26T06:04:28;13.20;;;10.10;;
10088;SDS011;51898;49.864;8.550;2023-06-26T06:07:31;14.63;;;10.77;;
10088;SDS011;51898;49.864;8.550;2023-06-26T06:10:34;18.10;;;10.73;;
10088;SDS011;51898;49.864;8.550;2023-06-26T06:13:37;11.57;;;10.17;;
10088;SDS011;51898;49.864;8.550;2023-06-26T06:16:39;11.70;;;9.90;;
10088;SDS011;51898;49.864;8.550;2023-06-26T06:19:42;20.40;;;11.13;;
10088;SDS011;51898;49.864;8.550;2023-06-26T06:22:44;11.80;;;10.70;;
10088;SDS011;51898;49.864;8.550;2023-06-26T06:25:46;13.03;;;10.90;;
10088;SDS011;51898;49.864;8.550;2023-06-26T06:28:48;14.33;;;10.50;;
10088;SDS011;51898;49.864;8.550;2023-06-26T06:31:51;13.80;;;11.40;;
10088;SDS011;51898;49.864;8.550;2023-06-26T06:34:53;11.57;;;10.47;;
10088;SDS011;51898;49.864;8.550;2023-06-26T06:37:55;12.23;;;11.00;;
10088;SDS011;51898;49.864;8.550;2023-06-26T06:40:57;13.23;;;11.53;;
10088;SDS011;51898;49.864;8.550;2023-06-26T06:43:59;14.43;;;11.30;;
10088;SDS011;51898;49.864;8.550;2023-06-26T06:47:01;11.70;;;10.50;;
10088;SDS011;51898;49.864;8.550;2023-06-26T06:50:03;12.43;;;11.13;;
10088;SDS011;51898;49.864;8.550;2023-06-26T06:53:12;11.80;;;10.70;;
10088;SDS011;51898;49.864;8.550;2023-06-26T06:56:14;13.20;;;10.50;;
10088;SDS011;51898;49.864;8.550;2023-06-26T06:59:15;11.43;;;10.10;;
10088;SDS011;51898;49.864;8.550;2023-06-26T07:02:18;13.07;;;10.93;;
10088;SDS011;51898;49.864;8.550;2023-06-26T07:05:20;12.33;;;10.00;;
10088;SDS011;51898;49.864;8.550;2023-06-26T07:08:22;12.03;;;10.77;;
10088;SDS011;51898;49.864;8.550;2023-06-26T07:11:24;12.27;;;10.33;;
10088;SDS011;51898;49.864;8.550;2023-06-26T07:14:26;11.57;;;10.37;;
10088;SDS011;51898;49.864;8.550;2023-06-26T07:17:28;11.00;;;9.90;;
10088;SDS011;51898;49.864;8.550;2023-06-26T07:20:30;11.57;;;9.73;;
10088;SDS011;51898;49.864;8.550;2023-06-26T07:23:32;10.80;;;9.80;;
10088;SDS011;51898;49.864;8.550;2023-06-26T07:26:34;11.63;;;9.50;;
10088;SDS011;51898;49.864;8.550;2023-06-26T07:29:47;11.30;;;10.20;;
10088;SDS011;51898;49.864;8.550;2023-06-26T07:32:49;13.50;;;9.73;;
10088;SDS011;51898;49.864;8.550;2023-06-26T07:35:52;16.40;;;10.70;;
10088;SDS011;51898;49.864;8.550;2023-06-26T07:39:06;10.83;;;9.90;;
10088;SDS011;51898;49.864;8.550;2023-06-26T07:42:12;15.80;;;9.73;;
10088;SDS011;51898;49.864;8.550;2023-06-26T07:45:17;10.73;;;9.83;;
10088;SDS011;51898;49.864;8.550;2023-06-26T07:48:27;11.13;;;9.93;;
10088;SDS011;51898;49.864;8.550;2023-06-26T07:51:32;11.10;;;10.00;;
10088;SDS011;51898;49.864;8.550;2023-06-26T07:54:35;10.53;;;9.50;;
10088;SDS011;51898;49.864;8.550;2023-06-26T07:57:37;12.13;;;10.90;;
10088;SDS011;51898;49.864;8.550;2023-06-26T08:00:39;12.80;;;10.67;;
10088;SDS011;51898;49.864;8.550;2023-06-26T08:03:42;11.27;;;9.97;;
10088;SDS011;51898;49.864;8.550;2023-06-26T08:06:49;11.80;;;10.60;;
10088;SDS011;51898;49.864;8.550;2023-06-26T08:09:52;12.53;;;10.10;;
10088;SDS011;51898;49.864;8.550;2023-06-26T08:12:55;11.80;;;10.60;;
10088;SDS011;51898;49.864;8.550;2023-06-26T08:16:06;11.57;;;10.57;;
10088;SDS011;51898;49.864;8.550;2023-06-26T08:19:14;11.27;;;10.20;;
10088;SDS011;51898;49.864;8.550;2023-06-26T08:22:18;14.43;;;10.47;;
10088;SDS011;51898;49.864;8.550;2023-06-26T08:25:20;11.60;;;9.97;;
10088;SDS011;51898;49.864;8.550;2023-06-26T08:28:33;12.90;;;11.00;;
10088;SDS011;51898;49.864;8.550;2023-06-26T08:31:39;10.80;;;9.77;;
10088;SDS011;51898;49.864;8.550;2023-06-26T08:34:45;10.82;;;9.82;;
10088;SDS011;51898;49.864;8.550;2023-06-26T08:37:49;11.10;;;10.00;;
10088;SDS011;51898;49.864;8.550;2023-06-26T08:40:55;11.15;;;9.73;;
10088;SDS011;51898;49.864;8.550;2023-06-26T08:43:58;12.10;;;10.93;;
10088;SDS011;51898;49.864;8.550;2023-06-26T08:47:00;11.30;;;10.10;;
10088;SDS011;51898;49.864;8.550;2023-06-26T08:50:08;12.20;;;11.05;;
10088;SDS011;51898;49.864;8.550;2023-06-26T08:53:17;11.55;;;10.45;;
10088;SDS011;51898;49.864;8.550;2023-06-26T08:56:35;11.68;;;10.60;;
10088;SDS011;51898;49.864;8.550;2023-06-26T08:59:39;10.27;;;9.03;;
10088;SDS011;51898;49.864;8.550;2023-06-26T09:02:42;10.18;;;8.32;;
10088;SDS011;51898;49.864;8.550;2023-06-26T09:05:52;8.95;;;8.25;;
10088;SDS011;51898;49.864;8.550;2023-06-26T09:08:59;10.50;;;9.60;;
10088;SDS011;51898;49.864;8.550;2023-06-26T09:12:04;9.52;;;8.52;;
10088;SDS011;51898;49.864;8.550;2023-06-26T09:15:06;9.73;;;8.88;;
10088;SDS011;51898;49.864;8.550;2023-06-26T09:18:12;9.10;;;8.30;;
10088;SDS011;51898;49.864;8.550;2023-06-26T09:21:21;9.20;;;8.45;;
10088;SDS011;51898;49.864;8.550;2023-06-26T09:24:46;9.65;;;8.85;;
10088;SDS011;51898;49.864;8.550;2023-06-26T09:27:51;9.75;;;8.85;;
10088;SDS011;51898;49.864;8.550;2023-06-26T09:31:00;9.85;;;9.05;;
10088;SDS011;51898;49.864;8.550;2023-06-26T09:34:07;8.70;;;8.00;;
10088;SDS011;51898;49.864;8.550;2023-06-26T09:37:13;10.15;;;8.80;;
10088;SDS011;51898;49.864;8.550;2023-06-26T09:40:15;9.73;;;8.90;;
10088;SDS011;51898;49.864;8.550;2023-06-26T09:43:20;10.03;;;9.03;;
10088;SDS011;51898;49.864;8.550;2023-06-26T09:46:25;9.68;;;8.77;;
10088;SDS011;51898;49.864;8.550;2023-06-26T09:49:31;9.07;;;8.43;;
10088;SDS011;51898;49.864;8.550;2023-06-26T09:52:34;12.80;;;9.10;;
10088;SDS011;51898;49.864;8.550;2023-06-26T09:55:37;10.70;;;9.70;;
10088;SDS011;51898;49.864;8.550;2023-06-26T09:58:39;11.68;;;9.60;;
10088;SDS011;51898;49.864;8.550;2023-06-26T10:01:45;9.80;;;9.00;;
10088;SDS011;51898;49.864;8.550;2023-06-26T10:04:48;10.13;;;9.23;;
10088;SDS011;51898;49.864;8.550;2023-06-26T10:07:50;9.77;;;8.60;;
10088;SDS011;51898;49.864;8.550;2023-06-26T10:10:54;9.75;;;8.93;;
10088;SDS011;51898;49.864;8.550;2023-06-26T10:13:58;9.82;;;8.95;;
10088;SDS011;51898;49.864;8.550;2023-06-26T10:17:17;8.57;;;7.97;;
10088;SDS011;51898;49.864;8.550;2023-06-26T10:20:24;9.27;;;8.23;;
10088;SDS011;51898;49.864;8.550;2023-06-26T10:23:28;9.00;;;8.30;;
10088;SDS011;51898;49.864;8.550;2023-06-26T10:26:32;10.27;;;8.43;;
10088;SDS011;51898;49.864;8.550;2023-06-26T10:29:40;9.38;;;8.48;;
10088;SDS011;51898;49.864;8.550;2023-06-26T10:32:42;10.77;;;9.88;;
10088;SDS011;51898;49.864;8.550;2023-06-26T10:35:46;9.05;;;8.35;;
10088;SDS011;51898;49.864;8.550;2023-06-26T10:38:52;9.23;;;8.43;;
10088;SDS011;51898;49.864;8.550;2023-06-26T10:41:57;9.80;;;9.00;;
10088;SDS011;51898;49.864;8.550;2023-06-26T10:45:13;8.83;;;8.13;;
10088;SDS011;51898;49.864;8.550;2023-06-26T10:48:17;9.27;;;8.30;;
10088;SDS011;51898;49.864;8.550;2023-06-26T10:51:19;9.70;;;8.70;;
10088;SDS011;51898;49.864;8.550;2023-06-26T10:54:21;10.35;;;9.40;;
10088;SDS011;51898;49.864;8.550;2023-06-26T10:57:24;9.27;;;8.57;;
10088;SDS011;51898;49.864;8.550;2023-06-26T11:00:27;8.95;;;8.25;;
10088;SDS011;51898;49.864;8.550;2023-06-26T11:03:34;8.70;;;8.10;;
10088;SDS011;51898;49.864;8.550;2023-06-26T11:06:38;9.13;;;8.32;;
10088;SDS011;51898;49.864;8.550;2023-06-26T11:13:02;8.82;;;8.23;;
10088;SDS011;51898;49.864;8.550;2023-06-26T11:16:06;9.43;;;8.57;;
10088;SDS011;51898;49.864;8.550;2023-06-26T11:19:09;9.55;;;8.75;;
10088;SDS011;51898;49.864;8.550;2023-06-26T11:22:11;8.80;;;8.07;;
10088;SDS011;51898;49.864;8.550;2023-06-26T11:25:14;8.93;;;8.02;;
10088;SDS011;51898;49.864;8.550;2023-06-26T11:28:16;8.82;;;8.10;;
10088;SDS011;51898;49.864;8.550;2023-06-26T11:31:25;10.32;;;9.07;;
10088;SDS011;51898;49.864;8.550;2023-06-26T11:34:35;9.30;;;8.50;;
10088;SDS011;51898;49.864;8.550;2023-06-26T11:37:36;8.80;;;7.93;;
10088;SDS011;51898;49.864;8.550;2023-06-26T11:40:38;8.65;;;7.78;;
10088;SDS011;51898;49.864;8.550;2023-06-26T11:43:41;8.70;;;7.93;;
10088;SDS011;51898;49.864;8.550;2023-06-26T11:46:43;9.52;;;8.73;;
10088;SDS011;51898;49.864;8.550;2023-06-26T11:49:46;9.30;;;8.57;;
10088;SDS011;51898;49.864;8.550;2023-06-26T11:52:55;8.75;;;8.05;;
10088;SDS011;51898;49.864;8.550;2023-06-26T11:55:58;9.70;;;8.75;;
10088;SDS011;51898;49.864;8.550;2023-06-26T11:59:11;9.07;;;8.27;;
10088;SDS011;51898;49.864;8.550;2023-06-26T12:02:14;10.02;;;9.13;;
10088;SDS011;51898;49.864;8.550;2023-06-26T12:05:16;12.85;;;7.93;;
10088;SDS011;51898;49.864;8.550;2023-06-26T12:08:19;9.85;;;8.90;;
10088;SDS011;51898;49.864;8.550;2023-06-26T12:11:22;9.38;;;8.23;;
10088;SDS011;51898;49.864;8.550;2023-06-26T12:14:25;10.10;;;9.20;;
10088;SDS011;51898;49.864;8.550;2023-06-26T12:17:37;10.15;;;9.25;;
10088;SDS011;51898;49.864;8.550;2023-06-26T12:20:41;10.25;;;9.25;;
10088;SDS011;51898;49.864;8.550;2023-06-26T12:23:42;10.30;;;9.40;;
10088;SDS011;51898;49.864;8.550;2023-06-26T12:26:45;11.07;;;10.00;;
10088;SDS011;51898;49.864;8.550;2023-06-26T12:29:53;11.30;;;10.23;;
10088;SDS011;51898;49.864;8.550;2023-06-26T12:32:56;14.23;;;10.55;;
10088;SDS011;51898;49.864;8.550;2023-06-26T12:35:57;12.68;;;10.73;;
10088;SDS011;51898;49.864;8.550;2023-06-26T12:39:00;12.27;;;11.07;;
10088;SDS011;51898;49.864;8.550;2023-06-26T12:42:03;12.85;;;11.32;;
10088;SDS011;51898;49.864;8.550;2023-06-26T12:45:10;12.38;;;11.20;;
10088;SDS011;51898;49.864;8.550;2023-06-26T12:48:43;16.30;;;11.38;;
10088;SDS011;51898;49.864;8.550;2023-06-26T12:51:47;12.90;;;11.50;;
10088;SDS011;51898;49.864;8.550;2023-06-26T12:54:53;10.98;;;9.98;;
10088;SDS011;51898;49.864;8.550;2023-06-26T12:57:56;13.98;;;10.43;;
10088;SDS011;51898;49.864;8.550;2023-06-26T13:00:58;11.10;;;10.00;;
10088;SDS011;51898;49.864;8.550;2023-06-26T13:04:00;10.30;;;8.55;;
10088;SDS011;51898;49.864;8.550;2023-06-26T13:07:04;9.32;;;8.63;;
10088;SDS011;51898;49.864;8.550;2023-06-26T13:10:07;8.68;;;7.85;;
10088;SDS011;51898;49.864;8.550;2023-06-26T13:13:10;11.98;;;8.27;;
10088;SDS011;51898;49.864;8.550;2023-06-26T13:16:12;8.38;;;7.57;;
10088;SDS011;51898;49.864;8.550;2023-06-26T13:19:14;7.72;;;7.05;;
10088;SDS011;51898;49.864;8.550;2023-06-26T13:22:16;14.13;;;7.90;;
10088;SDS011;51898;49.864;8.550;2023-06-26T13:25:18;7.53;;;6.90;;
10088;SDS011;51898;49.864;8.550;2023-06-26T13:28:20;7.03;;;6.32;;
10088;SDS011;51898;49.864;8.550;2023-06-26T13:31:22;7.93;;;6.85;;
10088;SDS011;51898;49.864;8.550;2023-06-26T13:34:24;6.90;;;6.28;;
10088;SDS011;51898;49.864;8.550;2023-06-26T13:37:29;7.45;;;6.85;;
10088;SDS011;51898;49.864;8.550;2023-06-26T13:40:31;7.38;;;6.45;;
10088;SDS011;51898;49.864;8.550;2023-06-26T13:43:33;6.85;;;6.22;;
10088;SDS011;51898;49.864;8.550;2023-06-26T13:46:36;6.43;;;5.93;;
10088;SDS011;51898;49.864;8.550;2023-06-26T13:49:38;6.38;;;5.88;;
10088;SDS011;51898;49.864;8.550;2023-06-26T13:52:43;5.63;;;5.22;;
10088;SDS011;51898;49.864;8.550;2023-06-26T13:55:45;5.45;;;5.05;;
10088;SDS011;51898;49.864;8.550;2023-06-26T13:58:47;5.93;;;5.40;;
10088;SDS011;51898;49.864;8.550;2023-06-26T14:01:49;8.20;;;5.28;;
10088;SDS011;51898;49.864;8.550;2023-06-26T14:04:52;6.20;;;5.65;;
10088;SDS011;51898;49.864;8.550;2023-06-26T14:07:54;5.25;;;4.80;;
10088;SDS011;51898;49.864;8.550;2023-06-26T14:10:59;5.72;;;5.40;;
10088;SDS011;51898;49.864;8.550;2023-06-26T14:14:02;5.90;;;5.30;;
10088;SDS011;51898;49.864;8.550;2023-06-26T14:17:04;5.55;;;5.03;;
10088;SDS011;51898;49.864;8.550;2023-06-26T14:20:08;6.95;;;5.57;;
10088;SDS011;51898;49.864;8.550;2023-06-26T14:23:13;6.10;;;5.40;;
10088;SDS011;51898;49.864;8.550;2023-06-26T14:26:15;6.60;;;4.68;;
10088;SDS011;51898;49.864;8.550;2023-06-26T14:29:17;6.13;;;5.05;;
10088;SDS011;51898;49.864;8.550;2023-06-26T14:32:21;5.47;;;5.07;;
10088;SDS011;51898;49.864;8.550;2023-06-26T14:35:23;5.97;;;4.63;;
10088;SDS011;51898;49.864;8.550;2023-06-26T14:38:25;5.45;;;5.05;;
10088;SDS011;51898;49.864;8.550;2023-06-26T14:41:27;7.10;;;5.20;;
10088;SDS011;51898;49.864;8.550;2023-06-26T14:44:29;5.85;;;5.45;;
10088;SDS011;51898;49.864;8.550;2023-06-26T14:47:32;5.57;;;5.07;;
10088;SDS011;51898;49.864;8.550;2023-06-26T14:50:34;5.40;;;4.90;;
10088;SDS011;51898;49.864;8.550;2023-06-26T14:53:36;5.45;;;4.95;;
10088;SDS011;51898;49.864;8.550;2023-06-26T14:56:38;5.00;;;4.20;;
10088;SDS011;51898;49.864;8.550;2023-06-26T14:59:40;5.47;;;5.00;;
10088;SDS011;51898;49.864;8.550;2023-06-26T15:02:42;5.22;;;4.80;;
10088;SDS011;51898;49.864;8.550;2023-06-26T15:05:47;5.90;;;5.40;;
10088;SDS011;51898;49.864;8.550;2023-06-26T15:08:48;6.50;;;5.93;;
10088;SDS011;51898;49.864;8.550;2023-06-26T15:11:50;13.05;;;6.88;;
10088;SDS011;51898;49.864;8.550;2023-06-26T15:14:52;7.57;;;6.50;;
10088;SDS011;51898;49.864;8.550;2023-06-26T15:17:54;6.70;;;6.05;;
10088;SDS011;51898;49.864;8.550;2023-06-26T15:20:56;7.07;;;5.70;;
10088;SDS011;51898;49.864;8.550;2023-06-26T15:23:58;8.20;;;5.57;;
10088;SDS011;51898;49.864;8.550;2023-06-26T15:27:00;5.97;;;5.53;;
10088;SDS011;51898;49.864;8.550;2023-06-26T15:30:02;6.25;;;5.38;;
10088;SDS011;51898;49.864;8.550;2023-06-26T15:33:04;6.32;;;5.38;;
10088;SDS011;51898;49.864;8.550;2023-06-26T15:36:07;6.73;;;6.13;;
10088;SDS011;51898;49.864;8.550;2023-06-26T15:39:09;5.38;;;4.97;;
10088;SDS011;51898;49.864;8.550;2023-06-26T15:42:12;5.43;;;5.00;;
10088;SDS011;51898;49.864;8.550;2023-06-26T15:45:14;11.07;;;5.90;;
10088;SDS011;51898;49.864;8.550;2023-06-26T15:48:19;15.83;;;6.90;;
10088;SDS011;51898;49.864;8.550;2023-06-26T15:51:21;4.87;;;4.40;;
10088;SDS011;51898;49.864;8.550;2023-06-26T15:54:23;10.50;;;4.63;;
10088;SDS011;51898;49.864;8.550;2023-06-26T15:57:27;8.07;;;4.83;;
10088;SDS011;51898;49.864;8.550;2023-06-26T16:00:29;6.03;;;4.30;;
10088;SDS011;51898;49.864;8.550;2023-06-26T16:03:31;7.97;;;4.70;;
10088;SDS011;51898;49.864;8.550;2023-06-26T16:06:32;8.10;;;4.80;;
10088;SDS011;51898;49.864;8.550;2023-06-26T16:09:34;5.77;;;5.20;;
10088;SDS011;51898;49.864;8.550;2023-06-26T16:12:36;4.77;;;3.97;;
10088;SDS011;51898;49.864;8.550;2023-06-26T16:15:38;4.80;;;3.97;;
10088;SDS011;51898;49.864;8.550;2023-06-26T16:18:40;5.10;;;4.60;;
10088;SDS011;51898;49.864;8.550;2023-06-26T16:21:43;5.20;;;4.70;;
10088;SDS011;51898;49.864;8.550;2023-06-26T16:24:45;4.63;;;4.23;;
10088;SDS011;51898;49.864;8.550;2023-06-26T16:27:47;5.30;;;3.90;;
10088;SDS011;51898;49.864;8.550;2023-06-26T16:30:50;4.90;;;4.40;;
10088;SDS011;51898;49.864;8.550;2023-06-26T16:33:52;6.97;;;4.10;;
10088;SDS011;51898;49.864;8.550;2023-06-26T16:36:53;4.43;;;4.03;;
10088;SDS011;51898;49.864;8.550;2023-06-26T16:39:55;6.17;;;4.50;;
10088;SDS011;51898;49.864;8.550;2023-06-26T16:42:57;4.97;;;4.10;;
10088;SDS011;51898;49.864;8.550;2023-06-26T16:45:59;5.60;;;4.83;;
10088;SDS011;51898;49.864;8.550;2023-06-26T16:49:02;5.13;;;4.53;;
10088;SDS011;51898;49.864;8.550;2023-06-26T16:52:05;4.93;;;4.40;;
10088;SDS011;51898;49.864;8.550;2023-06-26T16:55:08;6.17;;;4.57;;
10088;SDS011;51898;49.864;8.550;2023-06-26T16:58:10;5.33;;;4.10;;
10088;SDS011;51898;49.864;8.550;2023-06-26T17:01:12;4.47;;;4.07;;
10088;SDS011;51898;49.864;8.550;2023-06-26T17:04:15;5.03;;;4.63;;
10088;SDS011;51898;49.864;8.550;2023-06-26T17:07:17;5.17;;;4.23;;
10088;SDS011;51898;49.864;8.550;2023-06-26T17:10:20;7.23;;;4.40;;
10088;SDS011;51898;49.864;8.550;2023-06-26T17:13:25;12.77;;;5.13;;
10088;SDS011;51898;49.864;8.550;2023-06-26T17:16:29;5.33;;;3.50;;
10088;SDS011;51898;49.864;8.550;2023-06-26T17:19:33;4.90;;;4.40;;
10088;SDS011;51898;49.864;8.550;2023-06-26T17:22:37;4.57;;;4.17;;
10088;SDS011;51898;49.864;8.550;2023-06-26T17:25:39;4.90;;;4.50;;
10088;SDS011;51898;49.864;8.550;2023-06-26T17:28:41;4.63;;;4.23;;
10088;SDS011;51898;49.864;8.550;2023-06-26T17:31:42;4.60;;;3.57;;
10088;SDS011;51898;49.864;8.550;2023-06-26T17:34:44;4.17;;;3.67;;
10088;SDS011;51898;49.864;8.550;2023-06-26T17:37:46;4.60;;;4.20;;
10088;SDS011;51898;49.864;8.550;2023-06-26T17:40:48;7.43;;;4.33;;
10088;SDS011;51898;49.864;8.550;2023-06-26T17:43:49;5.27;;;4.70;;
10088;SDS011;51898;49.864;8.550;2023-06-26T17:46:51;5.00;;;3.90;;
10088;SDS011;51898;49.864;8.550;2023-06-26T17:49:53;4.10;;;3.80;;
10088;SDS011;51898;49.864;8.550;2023-06-26T17:52:58;8.57;;;4.23;;
10088;SDS011;51898;49.864;8.550;2023-06-26T17:56:00;6.23;;;4.27;;
10088;SDS011;51898;49.864;8.550;2023-06-26T17:59:02;5.23;;;3.80;;
10088;SDS011;51898;49.864;8.550;2023-06-26T18:02:03;7.03;;;4.07;;
10088;SDS011;51898;49.864;8.550;2023-06-26T18:05:07;5.80;;;3.80;;
10088;SDS011;51898;49.864;8.550;2023-06-26T18:08:09;6.95;;;3.90;;
10088;SDS011;51898;49.864;8.550;2023-06-26T18:11:12;4.83;;;3.17;;
10088;SDS011;51898;49.864;8.550;2023-06-26T18:14:14;4.43;;;4.00;;
10088;SDS011;51898;49.864;8.550;2023-06-26T18:17:16;3.93;;;3.37;;